• Join FlightAware (Why Join?)
  • Login
  • US Flag 
Gobble Gobble! 
12:37AM EST


 

Airport Tracker/Info


-or-


 

Live Flight TrackerFlight Track Log ✈ RPA4911 ✈ 03-Jul-2013 ✈ KALB - KEWR

Flight Track Log - Related Links

Times and Time Zones

All times are in EDT time to prevent confusion due to time zone crossing. See the RPA4911 flight status page for this flight to view local times or setup timezone preferences in your user account.

Time Position Orientation Groundspeed Altitude Reporting Facility
EDT Latitude Longitude Course Direction KTS MPH feet Rate Location/Type
06:07AM 42.7339 -73.8081 200° South 155 178 1,300  Level Boston Center
06:08AM 42.7069 -73.8047 175° South 178 205 2,400 2,340 Climbing Boston Center
06:09AM 42.6353 -73.8597 209° Southwest 213 245 6,200 2,340 Climbing Boston Center
06:10AM 42.5725 -73.8808 194° South 226 260 8,500 2,160 Climbing Boston Center
06:11AM 42.4972 -73.9156 199° South 253 291 10,600 1,800 Climbing Boston Center
06:12AM 42.4347 -73.9058 173° South 251 289 12,200 1,620 Climbing Boston Center
06:13AM 42.1939 -73.9033 200° South  Level Estimated
06:13AM 42.4050 -73.7814 108° East 268 308 13,900  Level Boston Center
06:14AM 42.3811 -73.6767 107° East 304 350 14,000  Climbing Boston Center
06:16AM 42.3036 -73.7061 196° South 220 253 14,000  Level Boston Center
06:17AM 42.3003 -73.8211 268° West 165 190 14,000  Level Boston Center
06:18AM 42.2494 -73.8900 225° Southwest 303 349 14,000  Level Boston Center
06:19AM 42.1569 -73.9439 203° Southwest 317 365 14,000  Level Boston Center
06:20AM 42.0856 -73.9869 204° Southwest 327 376 14,000  Level Boston Center
06:21AM 41.9953 -74.0436 205° Southwest 327 376 14,000  Level Boston Center
06:22AM 41.9236 -74.0864 204° Southwest 320 368 14,100  Climbing Boston Center
06:23AM 41.8436 -74.1372 205° Southwest 320 368 14,100 -420 Level Boston Center
06:24AM 41.7594 -74.1878 204° Southwest 320 368 13,300 -1,020 Descending Boston Center
06:25AM 41.6922 -74.2250 202° Southwest 301 346 12,100 -1,260 Descending Boston Center
06:26AM 41.6167 -74.2700 204° Southwest 281 323 10,800 -1,200 Descending Boston Center
06:27AM 41.5575 -74.3044 204° Southwest 267 307 9,700 -1,200 Descending Boston Center
06:28AM 41.4881 -74.3467 204° Southwest 261 300 8,400 -960 Descending Boston Center
06:29AM 41.3833 -74.4000 201° Southwest 243 280 7,100 -480 Descending New York TRACON
06:30AM 41.3167 -74.3833 169° South 268 308 7,100 -420 Level New York TRACON
06:31AM 41.2500 -74.3500 159° South 268 308 6,300 -1,020 Descending New York TRACON
06:32AM 41.1833 -74.3000 151° Southeast 268 308 5,100 -1,080 Descending New York TRACON
06:33AM 41.1167 -74.2500 151° Southeast 250 288 4,200 -540 Descending New York TRACON
06:34AM 41.0500 -74.2000 151° Southeast 255 293 4,100 -60 Descending New York TRACON
06:35AM 41.0000 -74.1667 153° Southeast 252 290 4,100 -480 Level New York TRACON
06:36AM 40.9333 -74.1167 150° Southeast 250 288 3,200 -600 Descending New York TRACON
06:37AM 40.8667 -74.0833 159° South 240 276 3,000 -300 Descending New York TRACON
06:38AM 40.8167 -74.0833 180° South 173 199 2,600 -600 Descending New York TRACON
06:39AM 40.7833 -74.1000 201° Southwest 143 165 1,900 -720 Descending New York TRACON